MMUN

Cancún International Airport

Cancún, Mexico
TAF MMUN 171700Z 1718/1824 02010G20KT 6SM HZ BKN020 TX27/1721Z TN18/1812Z BECMG 1722/1723 02015KT SCT020 FM180300 02005KT 6SM HZ SCT015 FM181800 03010KT 6SM HZ BKN020
Issued Valid From Valid To
Nov-17 @ 17:00 UTC
(5 hours ago)
Nov-17 @ 18:00 UTC
(4 hours ago)
Nov-19 @ 00:00 UTC
(-1 days ago)
Expired Click to View Nov-17 @ 18:00 to Nov-17 @ 22:00
TAF MMUN 171700Z 1718/1824 02010G20KT 6SM HZ BKN020 TX27/1721Z TN18/1812Z
Wind Visibility Clouds Conditions
20° at 10 knots
 Gusting to 20 knots
6 miles
  • Broken at 2,000' AGL
  • Haze
Becoming Nov-17 @ 22:00 to Nov-18 @ 03:00
BECMG 1722/1723 02015KT SCT020
Wind Visibility Clouds Conditions
20° at 15 knots 6 miles
  • Scattered at 2,000' AGL
  • Haze
From Nov-18 @ 03:00 to Nov-18 @ 18:00
FM180300 02005KT 6SM HZ SCT015
Wind Visibility Clouds Conditions
20° at 5 knots 6 miles
  • Scattered at 1,500' AGL
  • Haze
From Nov-18 @ 18:00 to Nov-19 @ 00:00
FM181800 03010KT 6SM HZ BKN020
Wind Visibility Clouds Conditions
30° at 10 knots 6 miles
  • Broken at 2,000' AGL
  • Haze
TAF MMUN 171700Z 1718/1824 02010G20KT 6SM HZ BKN020 TX27/1721Z TN18/1812Z BECMG 1722/1723 02015KT SCT020 FM180300 02005KT 6SM HZ SCT015 FM181800 03010KT 6SM HZ BKN020
Issued Nov-17 @ 17:00 UTC
(5 hours ago)
Valid From Nov-17 @ 18:00 UTC
(4 hours ago)
Valid To Nov-19 @ 00:00 UTC
(-1 days ago)
Nov-17 @ 18:00 - Nov-17 @ 22:00
Wind Visibility
20° at 10 knots
 Gusting to 20 knots
6 miles
Clouds
  • Broken at 2,000' AGL
Conditions
  • Haze
Becoming Nov-17 @ 22:00 - Nov-18 @ 03:00
Wind Visibility
20° at 15 knots 6 miles
Clouds
  • Scattered at 2,000' AGL
Conditions
  • Haze
From Nov-18 @ 03:00 - Nov-18 @ 18:00
Wind Visibility
20° at 5 knots 6 miles
Clouds
  • Scattered at 1,500' AGL
Conditions
  • Haze
From Nov-18 @ 18:00 - Nov-19 @ 00:00
Wind Visibility
30° at 10 knots 6 miles
Clouds
  • Broken at 2,000' AGL
Conditions
  • Haze